sensor_id;sensor_type;location;lat;lon;timestamp;P1;durP1;ratioP1;P2;durP2;ratioP2
13026;SDS011;6580;42.680;23.324;2023-01-24T00:01:47;5.50;;;4.20;;
13026;SDS011;6580;42.680;23.324;2023-01-24T00:04:14;5.47;;;4.03;;
13026;SDS011;6580;42.680;23.324;2023-01-24T00:06:41;4.57;;;3.60;;
13026;SDS011;6580;42.680;23.324;2023-01-24T00:09:10;4.57;;;4.03;;
13026;SDS011;6580;42.680;23.324;2023-01-24T00:11:39;5.80;;;4.27;;
13026;SDS011;6580;42.680;23.324;2023-01-24T00:14:08;4.83;;;4.40;;
13026;SDS011;6580;42.680;23.324;2023-01-24T00:16:35;5.57;;;5.00;;
13026;SDS011;6580;42.680;23.324;2023-01-24T00:19:04;5.13;;;4.63;;
13026;SDS011;6580;42.680;23.324;2023-01-24T00:21:32;5.67;;;4.77;;
13026;SDS011;6580;42.680;23.324;2023-01-24T00:24:00;6.07;;;5.10;;
13026;SDS011;6580;42.680;23.324;2023-01-24T00:26:27;6.00;;;4.83;;
13026;SDS011;6580;42.680;23.324;2023-01-24T00:28:55;5.50;;;5.00;;
13026;SDS011;6580;42.680;23.324;2023-01-24T00:31:25;5.37;;;4.87;;
13026;SDS011;6580;42.680;23.324;2023-01-24T00:33:53;6.77;;;4.83;;
13026;SDS011;6580;42.680;23.324;2023-01-24T00:36:21;5.17;;;4.67;;
13026;SDS011;6580;42.680;23.324;2023-01-24T00:38:50;5.60;;;4.77;;
13026;SDS011;6580;42.680;23.324;2023-01-24T00:41:16;6.37;;;4.97;;
13026;SDS011;6580;42.680;23.324;2023-01-24T00:43:44;5.73;;;4.87;;
13026;SDS011;6580;42.680;23.324;2023-01-24T00:46:12;5.47;;;4.97;;
13026;SDS011;6580;42.680;23.324;2023-01-24T00:48:40;5.23;;;4.60;;
13026;SDS011;6580;42.680;23.324;2023-01-24T00:51:07;5.57;;;4.53;;
13026;SDS011;6580;42.680;23.324;2023-01-24T00:53:35;6.80;;;4.97;;
13026;SDS011;6580;42.680;23.324;2023-01-24T00:56:03;4.80;;;4.37;;
13026;SDS011;6580;42.680;23.324;2023-01-24T00:58:31;5.37;;;4.80;;
13026;SDS011;6580;42.680;23.324;2023-01-24T01:00:59;5.20;;;4.67;;
13026;SDS011;6580;42.680;23.324;2023-01-24T01:03:32;5.27;;;4.67;;
13026;SDS011;6580;42.680;23.324;2023-01-24T01:06:04;5.47;;;4.97;;
13026;SDS011;6580;42.680;23.324;2023-01-24T01:08:33;5.77;;;4.73;;
13026;SDS011;6580;42.680;23.324;2023-01-24T01:11:03;5.50;;;4.67;;
13026;SDS011;6580;42.680;23.324;2023-01-24T01:13:30;6.97;;;4.93;;
13026;SDS011;6580;42.680;23.324;2023-01-24T01:16:01;5.23;;;4.73;;
13026;SDS011;6580;42.680;23.324;2023-01-24T01:18:31;5.63;;;4.77;;
13026;SDS011;6580;42.680;23.324;2023-01-24T01:20:59;5.97;;;5.33;;
13026;SDS011;6580;42.680;23.324;2023-01-24T01:23:27;6.23;;;5.63;;
13026;SDS011;6580;42.680;23.324;2023-01-24T01:25:58;6.10;;;5.50;;
13026;SDS011;6580;42.680;23.324;2023-01-24T01:28:26;6.20;;;5.30;;
13026;SDS011;6580;42.680;23.324;2023-01-24T01:30:53;6.83;;;5.40;;
13026;SDS011;6580;42.680;23.324;2023-01-24T01:33:23;5.80;;;5.20;;
13026;SDS011;6580;42.680;23.324;2023-01-24T01:35:51;6.40;;;5.37;;
13026;SDS011;6580;42.680;23.324;2023-01-24T01:38:19;7.00;;;5.30;;
13026;SDS011;6580;42.680;23.324;2023-01-24T01:40:52;6.80;;;5.27;;
13026;SDS011;6580;42.680;23.324;2023-01-24T01:43:21;6.33;;;5.13;;
13026;SDS011;6580;42.680;23.324;2023-01-24T01:45:49;7.77;;;5.50;;
13026;SDS011;6580;42.680;23.324;2023-01-24T01:48:24;6.13;;;5.00;;
13026;SDS011;6580;42.680;23.324;2023-01-24T01:51:03;8.40;;;5.20;;
13026;SDS011;6580;42.680;23.324;2023-01-24T01:53:40;7.57;;;5.60;;
13026;SDS011;6580;42.680;23.324;2023-01-24T01:56:17;5.97;;;5.10;;
13026;SDS011;6580;42.680;23.324;2023-01-24T01:58:51;6.13;;;4.90;;
13026;SDS011;6580;42.680;23.324;2023-01-24T02:01:21;7.30;;;5.60;;
13026;SDS011;6580;42.680;23.324;2023-01-24T02:03:51;7.13;;;6.17;;
13026;SDS011;6580;42.680;23.324;2023-01-24T02:06:40;6.07;;;4.83;;
13026;SDS011;6580;42.680;23.324;2023-01-24T02:09:14;5.03;;;4.50;;
13026;SDS011;6580;42.680;23.324;2023-01-24T02:11:46;6.43;;;5.27;;
13026;SDS011;6580;42.680;23.324;2023-01-24T02:14:16;6.57;;;5.10;;
13026;SDS011;6580;42.680;23.324;2023-01-24T02:17:04;5.43;;;4.70;;
13026;SDS011;6580;42.680;23.324;2023-01-24T02:19:37;8.00;;;5.20;;
13026;SDS011;6580;42.680;23.324;2023-01-24T02:22:15;7.13;;;5.03;;
13026;SDS011;6580;42.680;23.324;2023-01-24T02:24:55;7.13;;;5.00;;
13026;SDS011;6580;42.680;23.324;2023-01-24T02:27:35;5.63;;;4.50;;
13026;SDS011;6580;42.680;23.324;2023-01-24T02:30:02;5.03;;;4.50;;
13026;SDS011;6580;42.680;23.324;2023-01-24T02:32:44;7.33;;;5.10;;
13026;SDS011;6580;42.680;23.324;2023-01-24T02:35:25;7.57;;;4.37;;
13026;SDS011;6580;42.680;23.324;2023-01-24T02:37:53;5.70;;;4.60;;
13026;SDS011;6580;42.680;23.324;2023-01-24T02:40:24;5.07;;;4.37;;
13026;SDS011;6580;42.680;23.324;2023-01-24T02:42:54;5.17;;;4.07;;
13026;SDS011;6580;42.680;23.324;2023-01-24T02:45:23;5.47;;;4.40;;
13026;SDS011;6580;42.680;23.324;2023-01-24T02:47:55;5.00;;;4.53;;
13026;SDS011;6580;42.680;23.324;2023-01-24T02:50:24;5.20;;;4.70;;
13026;SDS011;6580;42.680;23.324;2023-01-24T02:52:53;5.10;;;4.57;;
13026;SDS011;6580;42.680;23.324;2023-01-24T02:55:38;5.60;;;5.10;;
13026;SDS011;6580;42.680;23.324;2023-01-24T02:58:27;6.00;;;4.80;;
13026;SDS011;6580;42.680;23.324;2023-01-24T03:00:56;5.00;;;4.30;;
13026;SDS011;6580;42.680;23.324;2023-01-24T03:03:24;6.13;;;4.77;;
13026;SDS011;6580;42.680;23.324;2023-01-24T03:05:50;5.47;;;4.83;;
13026;SDS011;6580;42.680;23.324;2023-01-24T03:08:24;4.67;;;4.20;;
13026;SDS011;6580;42.680;23.324;2023-01-24T03:10:53;4.70;;;3.80;;
13026;SDS011;6580;42.680;23.324;2023-01-24T03:13:24;4.30;;;3.90;;
13026;SDS011;6580;42.680;23.324;2023-01-24T03:16:14;6.23;;;4.17;;
13026;SDS011;6580;42.680;23.324;2023-01-24T03:18:59;4.40;;;3.70;;
13026;SDS011;6580;42.680;23.324;2023-01-24T03:21:43;4.97;;;4.33;;
13026;SDS011;6580;42.680;23.324;2023-01-24T03:24:28;4.43;;;3.97;;
13026;SDS011;6580;42.680;23.324;2023-01-24T03:27:15;7.40;;;4.70;;
13026;SDS011;6580;42.680;23.324;2023-01-24T03:29:59;5.03;;;4.07;;
13026;SDS011;6580;42.680;23.324;2023-01-24T03:32:45;4.37;;;3.97;;
13026;SDS011;6580;42.680;23.324;2023-01-24T03:35:29;6.23;;;4.50;;
13026;SDS011;6580;42.680;23.324;2023-01-24T03:37:59;4.93;;;4.40;;
13026;SDS011;6580;42.680;23.324;2023-01-24T03:40:44;4.97;;;4.30;;
13026;SDS011;6580;42.680;23.324;2023-01-24T03:43:11;5.63;;;4.67;;
13026;SDS011;6580;42.680;23.324;2023-01-24T03:45:40;5.27;;;4.03;;
13026;SDS011;6580;42.680;23.324;2023-01-24T03:48:09;5.10;;;4.60;;
13026;SDS011;6580;42.680;23.324;2023-01-24T03:50:38;7.00;;;4.00;;
13026;SDS011;6580;42.680;23.324;2023-01-24T03:53:24;4.40;;;4.00;;
13026;SDS011;6580;42.680;23.324;2023-01-24T03:55:57;4.80;;;4.30;;
13026;SDS011;6580;42.680;23.324;2023-01-24T03:58:27;5.07;;;4.50;;
13026;SDS011;6580;42.680;23.324;2023-01-24T04:00:56;6.10;;;4.47;;
13026;SDS011;6580;42.680;23.324;2023-01-24T04:03:28;4.43;;;4.03;;
13026;SDS011;6580;42.680;23.324;2023-01-24T04:05:58;4.60;;;4.13;;
13026;SDS011;6580;42.680;23.324;2023-01-24T04:08:25;5.07;;;4.57;;
13026;SDS011;6580;42.680;23.324;2023-01-24T04:10:54;5.17;;;4.67;;
13026;SDS011;6580;42.680;23.324;2023-01-24T04:13:24;4.50;;;4.10;;
13026;SDS011;6580;42.680;23.324;2023-01-24T04:15:52;4.87;;;4.40;;
13026;SDS011;6580;42.680;23.324;2023-01-24T04:18:22;4.57;;;4.17;;
13026;SDS011;6580;42.680;23.324;2023-01-24T04:20:52;5.10;;;4.70;;
13026;SDS011;6580;42.680;23.324;2023-01-24T04:23:19;5.97;;;4.90;;
13026;SDS011;6580;42.680;23.324;2023-01-24T04:25:50;5.47;;;4.87;;
13026;SDS011;6580;42.680;23.324;2023-01-24T04:28:20;5.30;;;4.83;;
13026;SDS011;6580;42.680;23.324;2023-01-24T04:30:48;5.37;;;4.57;;
13026;SDS011;6580;42.680;23.324;2023-01-24T04:33:15;5.97;;;5.03;;
13026;SDS011;6580;42.680;23.324;2023-01-24T04:35:41;5.80;;;4.90;;
13026;SDS011;6580;42.680;23.324;2023-01-24T04:38:13;6.57;;;5.33;;
13026;SDS011;6580;42.680;23.324;2023-01-24T04:40:41;6.00;;;5.23;;
13026;SDS011;6580;42.680;23.324;2023-01-24T04:43:09;5.80;;;5.07;;
13026;SDS011;6580;42.680;23.324;2023-01-24T04:45:38;5.67;;;4.57;;
13026;SDS011;6580;42.680;23.324;2023-01-24T04:48:05;6.00;;;5.40;;
13026;SDS011;6580;42.680;23.324;2023-01-24T04:50:33;4.97;;;4.47;;
13026;SDS011;6580;42.680;23.324;2023-01-24T04:53:04;4.10;;;3.70;;
13026;SDS011;6580;42.680;23.324;2023-01-24T04:55:33;5.67;;;4.37;;
13026;SDS011;6580;42.680;23.324;2023-01-24T04:58:02;4.60;;;4.07;;
13026;SDS011;6580;42.680;23.324;2023-01-24T05:00:29;5.07;;;4.47;;
13026;SDS011;6580;42.680;23.324;2023-01-24T05:02:56;5.20;;;4.00;;
13026;SDS011;6580;42.680;23.324;2023-01-24T05:05:26;4.50;;;3.93;;
13026;SDS011;6580;42.680;23.324;2023-01-24T05:07:52;4.70;;;4.23;;
13026;SDS011;6580;42.680;23.324;2023-01-24T05:10:19;5.50;;;4.20;;
13026;SDS011;6580;42.680;23.324;2023-01-24T05:12:50;5.73;;;5.20;;
13026;SDS011;6580;42.680;23.324;2023-01-24T05:15:16;5.33;;;4.60;;
13026;SDS011;6580;42.680;23.324;2023-01-24T05:17:47;6.23;;;4.93;;
13026;SDS011;6580;42.680;23.324;2023-01-24T05:20:15;5.83;;;5.23;;
13026;SDS011;6580;42.680;23.324;2023-01-24T05:22:43;4.30;;;3.90;;
13026;SDS011;6580;42.680;23.324;2023-01-24T05:25:12;5.33;;;4.40;;
13026;SDS011;6580;42.680;23.324;2023-01-24T05:27:40;5.20;;;4.70;;
13026;SDS011;6580;42.680;23.324;2023-01-24T05:30:09;5.00;;;4.53;;
13026;SDS011;6580;42.680;23.324;2023-01-24T05:32:37;6.30;;;5.70;;
13026;SDS011;6580;42.680;23.324;2023-01-24T05:35:04;7.80;;;5.30;;
13026;SDS011;6580;42.680;23.324;2023-01-24T05:37:31;5.00;;;4.20;;
13026;SDS011;6580;42.680;23.324;2023-01-24T05:40:00;7.90;;;4.97;;
13026;SDS011;6580;42.680;23.324;2023-01-24T05:42:27;8.37;;;5.30;;
13026;SDS011;6580;42.680;23.324;2023-01-24T05:44:54;8.80;;;5.83;;
13026;SDS011;6580;42.680;23.324;2023-01-24T05:47:27;7.73;;;5.67;;
13026;SDS011;6580;42.680;23.324;2023-01-24T05:50:00;8.33;;;6.50;;
13026;SDS011;6580;42.680;23.324;2023-01-24T05:52:27;7.50;;;4.60;;
13026;SDS011;6580;42.680;23.324;2023-01-24T05:54:55;5.13;;;4.57;;
13026;SDS011;6580;42.680;23.324;2023-01-24T05:57:21;5.27;;;4.77;;
13026;SDS011;6580;42.680;23.324;2023-01-24T05:59:48;6.90;;;5.30;;
13026;SDS011;6580;42.680;23.324;2023-01-24T06:02:15;8.03;;;5.50;;
13026;SDS011;6580;42.680;23.324;2023-01-24T06:04:45;7.00;;;5.97;;
13026;SDS011;6580;42.680;23.324;2023-01-24T06:07:13;7.90;;;6.57;;
13026;SDS011;6580;42.680;23.324;2023-01-24T06:09:41;6.20;;;5.27;;
13026;SDS011;6580;42.680;23.324;2023-01-24T06:12:07;7.27;;;5.83;;
13026;SDS011;6580;42.680;23.324;2023-01-24T06:14:34;6.50;;;5.23;;
13026;SDS011;6580;42.680;23.324;2023-01-24T06:17:01;5.43;;;4.90;;
13026;SDS011;6580;42.680;23.324;2023-01-24T06:19:29;6.63;;;5.43;;
13026;SDS011;6580;42.680;23.324;2023-01-24T06:21:59;6.00;;;5.33;;
13026;SDS011;6580;42.680;23.324;2023-01-24T06:24:33;7.77;;;5.73;;
13026;SDS011;6580;42.680;23.324;2023-01-24T06:27:02;6.20;;;5.40;;
13026;SDS011;6580;42.680;23.324;2023-01-24T06:29:32;6.40;;;5.30;;
13026;SDS011;6580;42.680;23.324;2023-01-24T06:32:02;6.30;;;5.23;;
13026;SDS011;6580;42.680;23.324;2023-01-24T06:34:46;6.33;;;5.73;;
13026;SDS011;6580;42.680;23.324;2023-01-24T06:37:31;5.60;;;5.00;;
13026;SDS011;6580;42.680;23.324;2023-01-24T06:40:07;6.63;;;4.90;;
13026;SDS011;6580;42.680;23.324;2023-01-24T06:42:36;6.80;;;5.73;;
13026;SDS011;6580;42.680;23.324;2023-01-24T06:45:04;6.47;;;5.77;;
13026;SDS011;6580;42.680;23.324;2023-01-24T06:47:32;7.30;;;5.47;;
13026;SDS011;6580;42.680;23.324;2023-01-24T06:50:01;6.93;;;6.00;;
13026;SDS011;6580;42.680;23.324;2023-01-24T06:52:31;7.40;;;6.63;;
13026;SDS011;6580;42.680;23.324;2023-01-24T06:54:58;8.50;;;6.30;;
13026;SDS011;6580;42.680;23.324;2023-01-24T06:57:25;8.37;;;6.90;;
13026;SDS011;6580;42.680;23.324;2023-01-24T06:59:53;7.27;;;6.43;;
13026;SDS011;6580;42.680;23.324;2023-01-24T07:02:21;14.10;;;10.30;;
13026;SDS011;6580;42.680;23.324;2023-01-24T07:04:48;12.63;;;9.43;;
13026;SDS011;6580;42.680;23.324;2023-01-24T07:07:16;23.90;;;12.00;;
13026;SDS011;6580;42.680;23.324;2023-01-24T07:09:44;17.57;;;11.00;;
13026;SDS011;6580;42.680;23.324;2023-01-24T07:12:14;16.17;;;9.40;;
13026;SDS011;6580;42.680;23.324;2023-01-24T07:14:41;16.13;;;10.03;;
13026;SDS011;6580;42.680;23.324;2023-01-24T07:17:08;12.13;;;8.17;;
13026;SDS011;6580;42.680;23.324;2023-01-24T07:19:36;9.73;;;7.50;;
13026;SDS011;6580;42.680;23.324;2023-01-24T07:22:04;9.53;;;6.80;;
13026;SDS011;6580;42.680;23.324;2023-01-24T07:24:33;8.63;;;7.50;;
13026;SDS011;6580;42.680;23.324;2023-01-24T07:27:09;7.10;;;5.87;;
13026;SDS011;6580;42.680;23.324;2023-01-24T07:29:39;7.13;;;6.37;;
13026;SDS011;6580;42.680;23.324;2023-01-24T07:32:06;7.13;;;6.20;;
13026;SDS011;6580;42.680;23.324;2023-01-24T07:34:35;6.27;;;5.60;;
13026;SDS011;6580;42.680;23.324;2023-01-24T07:37:05;7.63;;;5.30;;
13026;SDS011;6580;42.680;23.324;2023-01-24T07:39:33;5.83;;;5.30;;
13026;SDS011;6580;42.680;23.324;2023-01-24T07:42:01;7.43;;;6.10;;
13026;SDS011;6580;42.680;23.324;2023-01-24T07:44:30;8.17;;;5.97;;
13026;SDS011;6580;42.680;23.324;2023-01-24T07:46:57;7.33;;;5.00;;
13026;SDS011;6580;42.680;23.324;2023-01-24T07:49:25;9.27;;;5.93;;
13026;SDS011;6580;42.680;23.324;2023-01-24T07:51:57;6.57;;;5.77;;
13026;SDS011;6580;42.680;23.324;2023-01-24T07:54:24;7.50;;;5.87;;
13026;SDS011;6580;42.680;23.324;2023-01-24T07:56:53;7.07;;;5.57;;
13026;SDS011;6580;42.680;23.324;2023-01-24T07:59:21;6.50;;;5.37;;
13026;SDS011;6580;42.680;23.324;2023-01-24T08:01:50;6.60;;;5.27;;
13026;SDS011;6580;42.680;23.324;2023-01-24T08:04:19;4.97;;;4.47;;
13026;SDS011;6580;42.680;23.324;2023-01-24T08:06:49;5.17;;;4.67;;
13026;SDS011;6580;42.680;23.324;2023-01-24T08:09:33;6.60;;;5.33;;
13026;SDS011;6580;42.680;23.324;2023-01-24T08:12:03;6.50;;;5.40;;
13026;SDS011;6580;42.680;23.324;2023-01-24T08:14:32;5.40;;;4.90;;
13026;SDS011;6580;42.680;23.324;2023-01-24T08:17:00;5.77;;;5.00;;
13026;SDS011;6580;42.680;23.324;2023-01-24T08:19:29;6.83;;;5.33;;
13026;SDS011;6580;42.680;23.324;2023-01-24T08:21:56;6.03;;;5.40;;
13026;SDS011;6580;42.680;23.324;2023-01-24T08:24:24;5.83;;;5.23;;
13026;SDS011;6580;42.680;23.324;2023-01-24T08:26:52;5.50;;;4.73;;
13026;SDS011;6580;42.680;23.324;2023-01-24T08:29:18;6.60;;;5.17;;
13026;SDS011;6580;42.680;23.324;2023-01-24T08:31:46;5.50;;;5.00;;
13026;SDS011;6580;42.680;23.324;2023-01-24T08:34:15;6.13;;;4.70;;
13026;SDS011;6580;42.680;23.324;2023-01-24T08:36:42;5.57;;;4.87;;
13026;SDS011;6580;42.680;23.324;2023-01-24T08:39:09;6.00;;;4.90;;
13026;SDS011;6580;42.680;23.324;2023-01-24T08:41:36;10.03;;;6.63;;
13026;SDS011;6580;42.680;23.324;2023-01-24T08:44:04;9.40;;;7.40;;
13026;SDS011;6580;42.680;23.324;2023-01-24T08:46:31;10.63;;;7.57;;
13026;SDS011;6580;42.680;23.324;2023-01-24T08:48:58;8.13;;;6.63;;
13026;SDS011;6580;42.680;23.324;2023-01-24T08:51:28;9.03;;;7.27;;
13026;SDS011;6580;42.680;23.324;2023-01-24T08:53:55;10.13;;;7.07;;
13026;SDS011;6580;42.680;23.324;2023-01-24T08:56:22;12.20;;;8.47;;
13026;SDS011;6580;42.680;23.324;2023-01-24T08:58:49;8.47;;;7.17;;
13026;SDS011;6580;42.680;23.324;2023-01-24T09:01:16;6.63;;;5.60;;
13026;SDS011;6580;42.680;23.324;2023-01-24T09:03:43;6.13;;;5.27;;
13026;SDS011;6580;42.680;23.324;2023-01-24T09:06:10;5.93;;;5.13;;
13026;SDS011;6580;42.680;23.324;2023-01-24T09:08:41;6.47;;;5.20;;
13026;SDS011;6580;42.680;23.324;2023-01-24T09:11:08;6.30;;;5.67;;
13026;SDS011;6580;42.680;23.324;2023-01-24T09:13:35;5.80;;;4.83;;
13026;SDS011;6580;42.680;23.324;2023-01-24T09:16:02;6.07;;;5.43;;
13026;SDS011;6580;42.680;23.324;2023-01-24T09:18:29;5.57;;;5.07;;
13026;SDS011;6580;42.680;23.324;2023-01-24T09:20:59;7.00;;;5.33;;
13026;SDS011;6580;42.680;23.324;2023-01-24T09:23:26;5.57;;;5.07;;
13026;SDS011;6580;42.680;23.324;2023-01-24T09:25:55;6.13;;;4.80;;
13026;SDS011;6580;42.680;23.324;2023-01-24T09:28:22;6.90;;;5.20;;
13026;SDS011;6580;42.680;23.324;2023-01-24T09:30:49;5.67;;;4.70;;
13026;SDS011;6580;42.680;23.324;2023-01-24T09:33:16;8.13;;;6.30;;
13026;SDS011;6580;42.680;23.324;2023-01-24T09:35:54;7.77;;;6.23;;
13026;SDS011;6580;42.680;23.324;2023-01-24T09:38:24;6.20;;;5.60;;
13026;SDS011;6580;42.680;23.324;2023-01-24T09:41:01;7.37;;;6.30;;
13026;SDS011;6580;42.680;23.324;2023-01-24T09:43:45;6.60;;;5.90;;
13026;SDS011;6580;42.680;23.324;2023-01-24T09:46:17;5.30;;;4.83;;
13026;SDS011;6580;42.680;23.324;2023-01-24T09:48:52;5.70;;;5.10;;
13026;SDS011;6580;42.680;23.324;2023-01-24T09:51:27;6.03;;;4.57;;
13026;SDS011;6580;42.680;23.324;2023-01-24T09:53:56;4.03;;;3.63;;
13026;SDS011;6580;42.680;23.324;2023-01-24T09:56:29;5.97;;;5.07;;
13026;SDS011;6580;42.680;23.324;2023-01-24T09:59:12;6.87;;;4.97;;
13026;SDS011;6580;42.680;23.324;2023-01-24T10:01:43;5.63;;;4.97;;
13026;SDS011;6580;42.680;23.324;2023-01-24T10:04:20;5.23;;;4.73;;
13026;SDS011;6580;42.680;23.324;2023-01-24T10:09:52;5.53;;;4.77;;
13026;SDS011;6580;42.680;23.324;2023-01-24T10:12:37;5.07;;;4.30;;
13026;SDS011;6580;42.680;23.324;2023-01-24T10:15:17;5.57;;;5.00;;
13026;SDS011;6580;42.680;23.324;2023-01-24T10:18:07;4.97;;;4.47;;
13026;SDS011;6580;42.680;23.324;2023-01-24T10:21:00;5.47;;;4.40;;
13026;SDS011;6580;42.680;23.324;2023-01-24T10:23:46;4.30;;;3.90;;
13026;SDS011;6580;42.680;23.324;2023-01-24T10:26:17;4.70;;;3.97;;
13026;SDS011;6580;42.680;23.324;2023-01-24T10:28:48;5.00;;;4.40;;
13026;SDS011;6580;42.680;23.324;2023-01-24T10:31:34;3.93;;;3.63;;
13026;SDS011;6580;42.680;23.324;2023-01-24T10:34:08;3.77;;;3.37;;
13026;SDS011;6580;42.680;23.324;2023-01-24T10:36:40;3.97;;;3.57;;
13026;SDS011;6580;42.680;23.324;2023-01-24T10:39:11;4.17;;;3.43;;
13026;SDS011;6580;42.680;23.324;2023-01-24T10:41:38;3.50;;;3.20;;
13026;SDS011;6580;42.680;23.324;2023-01-24T10:44:08;4.00;;;3.70;;
13026;SDS011;6580;42.680;23.324;2023-01-24T10:46:53;3.37;;;3.07;;
13026;SDS011;6580;42.680;23.324;2023-01-24T10:49:35;3.77;;;3.37;;
13026;SDS011;6580;42.680;23.324;2023-01-24T10:52:10;6.63;;;5.17;;
13026;SDS011;6580;42.680;23.324;2023-01-24T10:54:45;3.60;;;3.27;;
13026;SDS011;6580;42.680;23.324;2023-01-24T10:57:18;3.40;;;3.10;;
13026;SDS011;6580;42.680;23.324;2023-01-24T10:59:54;4.37;;;3.53;;
13026;SDS011;6580;42.680;23.324;2023-01-24T11:02:23;4.93;;;4.43;;
13026;SDS011;6580;42.680;23.324;2023-01-24T11:04:58;3.93;;;3.60;;
13026;SDS011;6580;42.680;23.324;2023-01-24T11:07:29;3.67;;;3.37;;
13026;SDS011;6580;42.680;23.324;2023-01-24T11:09:58;3.70;;;3.40;;
13026;SDS011;6580;42.680;23.324;2023-01-24T11:12:28;4.13;;;3.73;;
13026;SDS011;6580;42.680;23.324;2023-01-24T11:14:56;3.00;;;2.80;;
13026;SDS011;6580;42.680;23.324;2023-01-24T11:17:34;3.73;;;3.00;;
13026;SDS011;6580;42.680;23.324;2023-01-24T11:20:04;3.40;;;3.10;;
13026;SDS011;6580;42.680;23.324;2023-01-24T11:23:02;3.37;;;3.07;;
13026;SDS011;6580;42.680;23.324;2023-01-24T11:25:49;3.27;;;2.97;;
13026;SDS011;6580;42.680;23.324;2023-01-24T11:28:22;3.10;;;2.80;;
13026;SDS011;6580;42.680;23.324;2023-01-24T11:30:51;5.40;;;3.50;;
13026;SDS011;6580;42.680;23.324;2023-01-24T11:33:27;2.90;;;2.60;;
13026;SDS011;6580;42.680;23.324;2023-01-24T11:36:03;2.67;;;2.47;;
13026;SDS011;6580;42.680;23.324;2023-01-24T11:38:51;3.80;;;3.40;;
13026;SDS011;6580;42.680;23.324;2023-01-24T11:41:25;3.73;;;3.43;;
13026;SDS011;6580;42.680;23.324;2023-01-24T11:44:10;3.03;;;2.83;;
13026;SDS011;6580;42.680;23.324;2023-01-24T11:47:08;4.17;;;3.60;;
13026;SDS011;6580;42.680;23.324;2023-01-24T11:49:51;4.37;;;3.10;;
13026;SDS011;6580;42.680;23.324;2023-01-24T11:52:42;4.23;;;3.20;;
13026;SDS011;6580;42.680;23.324;2023-01-24T12:01:08;3.63;;;3.10;;
13026;SDS011;6580;42.680;23.324;2023-01-24T12:06:43;2.93;;;2.70;;
13026;SDS011;6580;42.680;23.324;2023-01-24T12:09:19;3.67;;;3.30;;
13026;SDS011;6580;42.680;23.324;2023-01-24T12:11:49;4.10;;;3.70;;
13026;SDS011;6580;42.680;23.324;2023-01-24T12:14:33;6.50;;;4.73;;
13026;SDS011;6580;42.680;23.324;2023-01-24T12:20:14;3.37;;;2.83;;
13026;SDS011;6580;42.680;23.324;2023-01-24T12:22:50;3.90;;;3.50;;
13026;SDS011;6580;42.680;23.324;2023-01-24T12:25:22;3.20;;;2.90;;
13026;SDS011;6580;42.680;23.324;2023-01-24T12:27:56;3.27;;;2.97;;
13026;SDS011;6580;42.680;23.324;2023-01-24T12:30:28;3.37;;;3.07;;
13026;SDS011;6580;42.680;23.324;2023-01-24T12:32:59;3.53;;;3.23;;
13026;SDS011;6580;42.680;23.324;2023-01-24T12:35:34;5.10;;;4.33;;
13026;SDS011;6580;42.680;23.324;2023-01-24T12:38:10;3.40;;;3.10;;
13026;SDS011;6580;42.680;23.324;2023-01-24T12:40:44;4.00;;;3.60;;
13026;SDS011;6580;42.680;23.324;2023-01-24T12:43:17;5.33;;;4.50;;
13026;SDS011;6580;42.680;23.324;2023-01-24T12:45:51;3.63;;;3.30;;
13026;SDS011;6580;42.680;23.324;2023-01-24T12:48:26;2.70;;;2.50;;
13026;SDS011;6580;42.680;23.324;2023-01-24T12:51:12;3.10;;;2.90;;
13026;SDS011;6580;42.680;23.324;2023-01-24T12:53:51;3.00;;;2.80;;
13026;SDS011;6580;42.680;23.324;2023-01-24T12:56:26;3.03;;;2.83;;
13026;SDS011;6580;42.680;23.324;2023-01-24T12:58:58;3.30;;;3.00;;
13026;SDS011;6580;42.680;23.324;2023-01-24T13:01:33;3.10;;;2.90;;
13026;SDS011;6580;42.680;23.324;2023-01-24T13:04:10;3.10;;;2.90;;
13026;SDS011;6580;42.680;23.324;2023-01-24T13:06:52;2.93;;;2.60;;
13026;SDS011;6580;42.680;23.324;2023-01-24T13:09:26;2.63;;;2.20;;
13026;SDS011;6580;42.680;23.324;2023-01-24T13:12:02;3.13;;;2.87;;
13026;SDS011;6580;42.680;23.324;2023-01-24T13:14:34;2.90;;;2.60;;
13026;SDS011;6580;42.680;23.324;2023-01-24T13:17:16;9.40;;;6.60;;
13026;SDS011;6580;42.680;23.324;2023-01-24T13:20:00;5.20;;;3.47;;
13026;SDS011;6580;42.680;23.324;2023-01-24T13:23:02;2.70;;;2.50;;
13026;SDS011;6580;42.680;23.324;2023-01-24T13:25:52;2.90;;;2.60;;
13026;SDS011;6580;42.680;23.324;2023-01-24T13:28:38;3.07;;;2.87;;
13026;SDS011;6580;42.680;23.324;2023-01-24T13:31:17;3.97;;;3.40;;
13026;SDS011;6580;42.680;23.324;2023-01-24T13:33:49;3.47;;;3.17;;
13026;SDS011;6580;42.680;23.324;2023-01-24T13:36:20;2.83;;;2.63;;
13026;SDS011;6580;42.680;23.324;2023-01-24T13:38:52;3.00;;;2.80;;
13026;SDS011;6580;42.680;23.324;2023-01-24T13:41:31;3.17;;;2.87;;
13026;SDS011;6580;42.680;23.324;2023-01-24T13:44:00;2.83;;;2.63;;
13026;SDS011;6580;42.680;23.324;2023-01-24T13:52:37;3.20;;;3.00;;
13026;SDS011;6580;42.680;23.324;2023-01-24T13:58:20;3.03;;;2.83;;
13026;SDS011;6580;42.680;23.324;2023-01-24T14:00:51;4.80;;;3.20;;
13026;SDS011;6580;42.680;23.324;2023-01-24T14:03:22;6.20;;;4.43;;
13026;SDS011;6580;42.680;23.324;2023-01-24T14:05:52;4.53;;;3.40;;
13026;SDS011;6580;42.680;23.324;2023-01-24T14:08:33;4.13;;;3.13;;
13026;SDS011;6580;42.680;23.324;2023-01-24T14:13:57;4.50;;;3.70;;
13026;SDS011;6580;42.680;23.324;2023-01-24T14:19:25;5.23;;;4.47;;
13026;SDS011;6580;42.680;23.324;2023-01-24T14:21:56;4.67;;;4.10;;
13026;SDS011;6580;42.680;23.324;2023-01-24T14:24:31;4.33;;;3.77;;
13026;SDS011;6580;42.680;23.324;2023-01-24T14:27:01;4.90;;;4.47;;
13026;SDS011;6580;42.680;23.324;2023-01-24T14:29:44;5.10;;;4.40;;
13026;SDS011;6580;42.680;23.324;2023-01-24T14:32:17;5.00;;;4.50;;
13026;SDS011;6580;42.680;23.324;2023-01-24T14:34:49;4.80;;;4.33;;
13026;SDS011;6580;42.680;23.324;2023-01-24T14:37:24;4.00;;;3.60;;
13026;SDS011;6580;42.680;23.324;2023-01-24T14:42:46;3.63;;;3.33;;
13026;SDS011;6580;42.680;23.324;2023-01-24T14:45:17;3.60;;;3.30;;
13026;SDS011;6580;42.680;23.324;2023-01-24T14:47:48;4.67;;;4.27;;
13026;SDS011;6580;42.680;23.324;2023-01-24T14:50:19;4.90;;;4.40;;
13026;SDS011;6580;42.680;23.324;2023-01-24T14:52:48;5.23;;;4.10;;
13026;SDS011;6580;42.680;23.324;2023-01-24T14:55:28;8.10;;;5.30;;
13026;SDS011;6580;42.680;23.324;2023-01-24T14:58:15;10.43;;;7.03;;
13026;SDS011;6580;42.680;23.324;2023-01-24T15:00:48;4.97;;;4.00;;
13026;SDS011;6580;42.680;23.324;2023-01-24T15:03:18;5.73;;;5.13;;
13026;SDS011;6580;42.680;23.324;2023-01-24T15:05:51;7.03;;;5.80;;
13026;SDS011;6580;42.680;23.324;2023-01-24T15:08:28;5.33;;;4.23;;
13026;SDS011;6580;42.680;23.324;2023-01-24T15:11:00;5.70;;;4.63;;
13026;SDS011;6580;42.680;23.324;2023-01-24T15:13:33;4.17;;;3.77;;
13026;SDS011;6580;42.680;23.324;2023-01-24T15:16:04;4.73;;;4.30;;
13026;SDS011;6580;42.680;23.324;2023-01-24T15:18:40;4.83;;;3.50;;
13026;SDS011;6580;42.680;23.324;2023-01-24T15:21:21;4.10;;;3.70;;
13026;SDS011;6580;42.680;23.324;2023-01-24T15:23:53;4.10;;;3.77;;
13026;SDS011;6580;42.680;23.324;2023-01-24T15:26:23;4.23;;;3.77;;
13026;SDS011;6580;42.680;23.324;2023-01-24T15:28:58;4.00;;;3.60;;
13026;SDS011;6580;42.680;23.324;2023-01-24T15:31:28;3.40;;;3.10;;
13026;SDS011;6580;42.680;23.324;2023-01-24T15:33:57;4.57;;;4.17;;
13026;SDS011;6580;42.680;23.324;2023-01-24T15:36:27;13.53;;;4.83;;
13026;SDS011;6580;42.680;23.324;2023-01-24T15:38:56;5.83;;;3.57;;
13026;SDS011;6580;42.680;23.324;2023-01-24T15:41:28;4.53;;;4.13;;
13026;SDS011;6580;42.680;23.324;2023-01-24T15:44:16;4.33;;;3.70;;
13026;SDS011;6580;42.680;23.324;2023-01-24T15:46:52;5.13;;;3.87;;
13026;SDS011;6580;42.680;23.324;2023-01-24T15:49:39;6.73;;;4.10;;
13026;SDS011;6580;42.680;23.324;2023-01-24T15:52:12;4.37;;;3.97;;